createdAt,value
2019-06-20T00:01:54.394Z,19.88
2019-06-20T00:04:01.286Z,19.87
2019-06-20T00:06:09.709Z,19.84
2019-06-20T00:11:15.232Z,19.78
2019-06-20T00:30:19.284Z,19.66
2019-06-20T00:40:47.239Z,19.69
2019-06-20T00:42:54.327Z,19.69
2019-06-20T00:45:01.521Z,19.67
2019-06-20T00:47:10.569Z,19.68
2019-06-20T00:49:17.507Z,19.68
2019-06-20T00:51:24.843Z,19.66
2019-06-20T00:53:31.569Z,19.68
2019-06-20T00:55:38.505Z,19.68
2019-06-20T00:57:45.360Z,19.68
2019-06-20T00:59:52.151Z,19.66
2019-06-20T01:01:58.824Z,19.64
2019-06-20T01:04:05.631Z,19.63
2019-06-20T01:06:12.267Z,19.61
2019-06-20T01:08:19.071Z,19.60
2019-06-20T01:10:25.873Z,19.62
2019-06-20T01:12:49.379Z,19.66
2019-06-20T01:30:07.821Z,19.75
2019-06-20T01:32:28.019Z,19.73
2019-06-20T01:35:05.568Z,19.73
2019-06-20T01:37:24.872Z,19.70
2019-06-20T01:39:42.598Z,19.68
2019-06-20T01:41:50.330Z,19.66
2019-06-20T01:43:57.320Z,19.65
2019-06-20T01:46:04.141Z,19.64
2019-06-20T01:48:10.987Z,19.64
2019-06-20T01:50:19.606Z,19.63
2019-06-20T02:03:28.957Z,19.56
2019-06-20T02:05:42.593Z,19.54
2019-06-20T02:07:59.838Z,19.51
2019-06-20T02:16:23.335Z,19.48
2019-06-20T02:22:09.125Z,19.45
2019-06-20T02:35:12.817Z,19.40
2019-06-20T02:37:19.883Z,19.40
2019-06-20T02:37:26.449Z,19.44
2019-06-20T02:46:35.744Z,19.43
2019-06-20T02:48:45.362Z,19.44
2019-06-20T02:50:58.138Z,19.45
2019-06-20T02:53:09.383Z,19.46
2019-06-20T02:55:23.260Z,19.47
2019-06-20T02:57:38.201Z,19.46
2019-06-20T03:34:59.351Z,20.79
2019-06-20T03:37:12.539Z,20.94
2019-06-20T03:39:29.637Z,20.97
2019-06-20T03:41:50.281Z,21.09
2019-06-20T03:44:09.007Z,21.19
2019-06-20T03:46:29.525Z,21.23
2019-06-20T03:48:38.778Z,21.32
2019-06-20T03:50:47.311Z,21.49
2019-06-20T03:53:03.582Z,21.67
2019-06-20T03:55:17.912Z,21.85
2019-06-20T03:57:35.861Z,22.32
2019-06-20T04:00:04.178Z,22.99
2019-06-20T04:02:15.039Z,23.56
2019-06-20T04:04:23.022Z,24.27
2019-06-20T04:06:29.705Z,24.78
2019-06-20T04:08:36.417Z,25.14
2019-06-20T04:10:43.115Z,25.08
2019-06-20T04:12:49.877Z,24.99
2019-06-20T04:14:56.579Z,25.47
2019-06-20T04:17:03.314Z,26.19
2019-06-20T04:19:09.891Z,26.56
2019-06-20T04:21:25.423Z,26.95
2019-06-20T04:23:26.747Z,27.06
2019-06-20T04:25:33.442Z,27.08
2019-06-20T04:27:50.833Z,27.21
2019-06-20T04:29:55.251Z,27.12
2019-06-20T04:32:02.754Z,27.49
2019-06-20T04:34:11.275Z,28.06
2019-06-20T04:36:16.916Z,28.75
2019-06-20T04:38:23.270Z,28.76
2019-06-20T04:40:29.722Z,29.06
2019-06-20T04:42:36.607Z,29.63
2019-06-20T04:44:43.065Z,30.28
2019-06-20T04:46:54.132Z,30.46
2019-06-20T04:49:02.193Z,30.85
2019-06-20T04:51:08.643Z,31.30
2019-06-20T04:53:15.101Z,31.91
2019-06-20T04:55:21.732Z,32.58
2019-06-20T04:57:28.177Z,32.83
2019-06-20T04:59:34.721Z,32.56
2019-06-20T05:01:41.228Z,31.42
2019-06-20T05:03:47.738Z,30.41
2019-06-20T05:05:54.339Z,30.29
2019-06-20T05:08:00.842Z,29.59
2019-06-20T05:10:08.831Z,28.88
2019-06-20T05:12:15.322Z,28.41
2019-06-20T05:14:21.943Z,27.92
2019-06-20T05:16:29.308Z,27.50
2019-06-20T05:18:35.728Z,27.03
2019-06-20T05:20:42.250Z,26.57
2019-06-20T05:22:48.735Z,26.06
2019-06-20T05:24:55.110Z,25.75
2019-06-20T05:27:01.529Z,25.50
2019-06-20T05:29:08.003Z,25.14
2019-06-20T05:31:14.389Z,25.00
2019-06-20T05:33:20.906Z,24.95
2019-06-20T05:35:27.375Z,25.12
2019-06-20T05:37:34.962Z,25.27
2019-06-20T05:39:41.556Z,25.02
2019-06-20T05:41:48.042Z,25.05
2019-06-20T05:43:54.499Z,24.72
2019-06-20T05:46:09.644Z,24.85
2019-06-20T05:48:09.486Z,24.84
2019-06-20T05:50:16.726Z,25.00
2019-06-20T05:52:23.171Z,25.28
2019-06-20T05:54:29.615Z,25.46
2019-06-20T05:56:36.104Z,25.41
2019-06-20T05:58:42.597Z,25.43
2019-06-20T06:00:49.327Z,25.80
2019-06-20T06:02:55.857Z,26.10
2019-06-20T06:05:02.326Z,26.52
2019-06-20T06:07:08.818Z,26.96
2019-06-20T06:09:15.317Z,27.75
2019-06-20T06:11:22.096Z,27.87
2019-06-20T06:13:28.733Z,27.97
2019-06-20T06:15:35.177Z,28.46
2019-06-20T06:17:42.092Z,29.14
2019-06-20T06:19:49.870Z,29.90
2019-06-20T06:21:56.355Z,30.58
2019-06-20T06:24:02.808Z,30.49
2019-06-20T06:26:09.300Z,30.06
2019-06-20T06:28:15.690Z,29.76
2019-06-20T06:30:24.260Z,29.41
2019-06-20T06:32:39.687Z,29.06
2019-06-20T06:34:38.984Z,28.35
2019-06-20T06:36:45.552Z,27.80
2019-06-20T06:38:51.966Z,27.72
2019-06-20T06:40:58.501Z,27.75
2019-06-20T06:43:05.101Z,27.82
2019-06-20T06:45:13.210Z,27.95
2019-06-20T06:47:19.613Z,28.11
2019-06-20T06:49:26.077Z,27.98
2019-06-20T06:51:32.691Z,27.94
2019-06-20T06:53:40.254Z,27.38
2019-06-20T06:55:47.678Z,27.20
2019-06-20T06:57:54.161Z,27.01
2019-06-20T07:00:00.554Z,27.01
2019-06-20T07:02:08.352Z,26.78
2019-06-20T07:04:14.845Z,26.74
2019-06-20T07:06:21.453Z,26.82
2019-06-20T07:08:27.855Z,26.72
2019-06-20T07:10:34.575Z,26.83
2019-06-20T07:12:41.191Z,26.67
2019-06-20T07:14:47.689Z,26.63
2019-06-20T07:17:00.127Z,26.63
2019-06-20T07:19:02.265Z,26.67
2019-06-20T07:21:08.778Z,26.74
2019-06-20T07:23:15.181Z,26.95
2019-06-20T07:25:21.702Z,27.13
2019-06-20T07:27:28.205Z,27.28
2019-06-20T07:29:34.833Z,27.30
2019-06-20T07:31:41.252Z,27.61
2019-06-20T07:33:47.879Z,27.66
2019-06-20T07:35:55.048Z,27.94
2019-06-20T07:38:01.495Z,27.89
2019-06-20T07:40:09.795Z,28.16
2019-06-20T07:42:16.317Z,28.47
2019-06-20T07:44:22.807Z,28.73
2019-06-20T07:46:29.361Z,28.70
2019-06-20T07:48:35.864Z,29.10
2019-06-20T07:50:42.235Z,29.51
2019-06-20T07:53:01.614Z,29.90
2019-06-20T07:54:57.001Z,30.23
2019-06-20T07:57:03.409Z,30.37
2019-06-20T07:59:09.864Z,30.53
2019-06-20T08:01:16.383Z,30.32
2019-06-20T08:03:22.973Z,30.32
2019-06-20T08:05:29.540Z,30.47
2019-06-20T08:07:35.991Z,30.47
2019-06-20T08:09:45.211Z,30.73
2019-06-20T08:11:50.744Z,30.66
2019-06-20T08:13:57.299Z,30.55
2019-06-20T08:16:04.205Z,30.62
2019-06-20T08:18:10.851Z,30.57
2019-06-20T08:20:18.165Z,30.46
2019-06-20T08:22:24.590Z,30.33
2019-06-20T08:24:31.237Z,30.38
2019-06-20T08:26:37.696Z,30.32
2019-06-20T08:28:44.133Z,30.31
2019-06-20T08:30:50.753Z,30.55
2019-06-20T08:33:01.297Z,31.07
2019-06-20T08:35:08.106Z,31.48
2019-06-20T08:37:14.492Z,31.64
2019-06-20T08:39:21.020Z,31.85
2019-06-20T08:41:27.492Z,32.13
2019-06-20T08:43:35.027Z,32.13
2019-06-20T08:45:43.726Z,32.23
2019-06-20T08:47:51.223Z,32.48
2019-06-20T08:49:58.158Z,32.55
2019-06-20T08:52:06.164Z,32.26
2019-06-20T08:54:12.684Z,32.04
2019-06-20T08:56:19.096Z,32.18
2019-06-20T08:58:25.825Z,32.19
2019-06-20T09:00:35.006Z,32.10
2019-06-20T09:02:41.606Z,31.89
2019-06-20T09:04:48.116Z,31.94
2019-06-20T09:06:56.956Z,31.76
2019-06-20T09:09:02.742Z,31.70
2019-06-20T09:11:09.731Z,31.86
2019-06-20T09:13:16.156Z,31.91
2019-06-20T09:15:22.985Z,31.81
2019-06-20T09:17:29.452Z,31.76
2019-06-20T09:19:35.905Z,31.71
2019-06-20T09:21:42.419Z,31.36
2019-06-20T09:23:48.890Z,31.31
2019-06-20T09:25:55.966Z,31.43
2019-06-20T09:28:04.466Z,31.49
2019-06-20T09:30:13.146Z,31.38
2019-06-20T09:32:18.756Z,31.39
2019-06-20T09:34:25.091Z,31.32
2019-06-20T09:36:31.565Z,31.11
2019-06-20T09:38:38.080Z,30.93
2019-06-20T09:40:44.738Z,30.89
2019-06-20T09:42:51.795Z,30.94
2019-06-20T09:44:59.560Z,30.80
2019-06-20T09:47:09.452Z,30.68
2019-06-20T09:49:15.946Z,30.65
2019-06-20T09:51:22.503Z,30.66
2019-06-20T09:53:28.943Z,30.62
2019-06-20T09:55:35.481Z,30.49
2019-06-20T09:57:42.042Z,30.52
2019-06-20T10:00:03.142Z,30.54
2019-06-20T10:01:58.759Z,30.70
2019-06-20T10:04:05.278Z,30.55
2019-06-20T10:06:14.397Z,30.61
2019-06-20T10:08:20.105Z,30.67
2019-06-20T10:10:31.378Z,30.62
2019-06-20T10:12:38.042Z,30.49
2019-06-20T10:14:46.320Z,30.48
2019-06-20T10:16:54.093Z,30.54
2019-06-20T10:19:00.865Z,30.54
2019-06-20T10:21:07.378Z,30.65
2019-06-20T10:23:13.869Z,30.71
2019-06-20T10:25:21.044Z,30.81
2019-06-20T10:27:27.544Z,30.98
2019-06-20T10:29:34.135Z,31.15
2019-06-20T10:31:40.702Z,31.50
2019-06-20T10:33:48.377Z,31.71
2019-06-20T10:35:57.111Z,31.77
2019-06-20T10:38:03.533Z,31.87
2019-06-20T10:40:11.330Z,31.75
2019-06-20T10:42:17.877Z,31.60
2019-06-20T10:44:30.110Z,31.66
2019-06-20T10:46:36.796Z,31.41
2019-06-20T10:48:44.362Z,31.53
2019-06-20T10:50:52.103Z,31.56
2019-06-20T10:52:58.811Z,31.57
2019-06-20T10:55:08.648Z,31.37
2019-06-20T10:57:15.090Z,31.28
2019-06-20T10:59:21.546Z,31.31
2019-06-20T11:01:28.044Z,31.18
2019-06-20T11:03:34.434Z,31.12
2019-06-20T11:05:42.246Z,30.98
2019-06-20T11:07:49.914Z,31.01
2019-06-20T11:09:56.568Z,31.00
2019-06-20T11:12:03.006Z,31.02
2019-06-20T11:14:09.622Z,31.06
2019-06-20T11:16:16.133Z,31.15
2019-06-20T11:18:22.542Z,31.11
2019-06-20T11:20:29.227Z,31.07
2019-06-20T11:22:37.814Z,31.07
2019-06-20T11:24:45.116Z,31.15
2019-06-20T11:26:51.820Z,31.27
2019-06-20T11:28:58.414Z,31.31
2019-06-20T11:31:05.067Z,31.42
2019-06-20T11:33:12.525Z,31.59
2019-06-20T11:35:19.092Z,31.55
2019-06-20T11:37:25.860Z,31.33
2019-06-20T11:39:32.580Z,31.21
2019-06-20T11:41:39.590Z,30.94
2019-06-20T11:43:46.875Z,30.89
2019-06-20T11:45:53.316Z,30.81
2019-06-20T11:47:59.914Z,30.67
2019-06-20T11:50:12.090Z,30.67
2019-06-20T11:52:18.517Z,30.61
2019-06-20T11:54:24.942Z,30.51
2019-06-20T11:56:31.546Z,30.42
2019-06-20T11:58:38.244Z,30.46
2019-06-20T12:01:02.215Z,30.55
2019-06-20T12:02:52.896Z,30.66
2019-06-20T12:04:59.425Z,30.68
2019-06-20T12:07:06.056Z,30.75
2019-06-20T12:09:12.491Z,30.85
2019-06-20T12:11:19.049Z,30.85
2019-06-20T12:13:25.565Z,30.85
2019-06-20T12:15:32.039Z,30.77
2019-06-20T12:17:41.016Z,30.67
2019-06-20T12:19:46.776Z,30.45
2019-06-20T12:21:53.172Z,30.26
2019-06-20T12:23:59.559Z,30.28
2019-06-20T12:26:07.240Z,30.22
2019-06-20T12:28:13.606Z,30.09
2019-06-20T12:30:23.295Z,30.00
2019-06-20T12:32:30.038Z,30.05
2019-06-20T12:34:38.838Z,30.04
2019-06-20T12:36:44.743Z,30.03
2019-06-20T12:38:51.331Z,30.04
2019-06-20T12:40:57.773Z,30.08
2019-06-20T12:43:04.203Z,30.11
2019-06-20T12:45:14.314Z,29.98
2019-06-20T12:47:21.010Z,29.84
2019-06-20T12:49:27.426Z,29.92
2019-06-20T12:51:33.814Z,30.02
2019-06-20T12:53:40.829Z,30.04
2019-06-20T12:55:48.537Z,29.96
2019-06-20T12:57:54.913Z,29.88
2019-06-20T13:00:01.382Z,29.94
2019-06-20T13:02:09.373Z,30.06
2019-06-20T13:04:15.853Z,30.28
2019-06-20T13:06:22.266Z,30.57
2019-06-20T13:08:29.816Z,30.91
2019-06-20T13:10:38.636Z,31.30
2019-06-20T13:12:44.402Z,31.45
2019-06-20T13:14:50.803Z,31.63
2019-06-20T13:16:57.255Z,31.61
2019-06-20T13:19:03.676Z,31.82
2019-06-20T13:21:10.222Z,31.90
2019-06-20T13:23:16.665Z,31.87
2019-06-20T13:25:23.076Z,31.39
2019-06-20T13:27:29.568Z,31.07
2019-06-20T13:29:35.953Z,30.86
2019-06-20T13:32:00.546Z,30.49
2019-06-20T13:33:50.542Z,30.33
2019-06-20T13:35:57.019Z,30.46
2019-06-20T13:38:03.529Z,30.33
2019-06-20T13:40:12.676Z,30.16
2019-06-20T13:42:19.178Z,29.90
2019-06-20T13:44:25.677Z,30.05
2019-06-20T13:46:32.045Z,30.03
2019-06-20T13:48:38.953Z,29.92
2019-06-20T13:50:47.436Z,30.05
2019-06-20T13:52:54.219Z,30.16
2019-06-20T13:55:00.632Z,30.19
2019-06-20T13:57:07.057Z,30.21
2019-06-20T13:59:13.509Z,30.21
2019-06-20T14:01:19.869Z,30.27
2019-06-20T14:03:26.410Z,30.25
2019-06-20T14:05:32.808Z,30.21
2019-06-20T14:07:43.468Z,30.13
2019-06-20T14:09:48.768Z,29.99
2019-06-20T14:11:56.358Z,30.07
2019-06-20T14:14:02.769Z,30.18
2019-06-20T14:16:09.327Z,30.27
2019-06-20T14:18:15.693Z,30.35
2019-06-20T14:20:22.698Z,30.30
2019-06-20T14:22:29.079Z,30.04
2019-06-20T14:24:35.491Z,29.98
2019-06-20T14:26:44.766Z,29.90
2019-06-20T14:28:51.182Z,29.95
2019-06-20T14:30:57.927Z,29.79
2019-06-20T14:33:04.590Z,29.89
2019-06-20T14:35:11.468Z,29.97
2019-06-20T14:37:17.853Z,29.95
2019-06-20T14:39:24.308Z,29.95
2019-06-20T14:41:30.786Z,29.76
2019-06-20T14:43:37.278Z,29.77
2019-06-20T14:45:45.133Z,29.92
2019-06-20T14:47:53.289Z,29.93
2019-06-20T14:49:59.664Z,29.94
2019-06-20T14:52:06.256Z,29.56
2019-06-20T14:54:12.673Z,29.48
2019-06-20T14:56:19.154Z,29.09
2019-06-20T14:58:25.611Z,28.94
2019-06-20T15:00:32.098Z,28.89
2019-06-20T15:02:39.205Z,28.89
2019-06-20T15:04:46.238Z,28.95
2019-06-20T15:06:52.872Z,28.97
2019-06-20T15:09:04.888Z,28.89
2019-06-20T15:11:11.780Z,28.82
2019-06-20T15:13:17.264Z,28.87
2019-06-20T15:15:23.831Z,29.03
2019-06-20T15:17:30.218Z,29.14
2019-06-20T15:19:36.667Z,29.08
2019-06-20T15:21:43.094Z,29.21
2019-06-20T15:23:50.853Z,29.55
2019-06-20T15:25:57.591Z,29.96
2019-06-20T15:28:04.121Z,30.35
2019-06-20T15:30:12.449Z,30.43
2019-06-20T15:32:18.958Z,30.75
2019-06-20T15:34:25.390Z,31.10
2019-06-20T15:36:31.855Z,31.12
2019-06-20T15:38:38.346Z,30.77
2019-06-20T15:40:44.812Z,30.42
2019-06-20T15:42:52.792Z,30.37
2019-06-20T15:44:59.266Z,30.04
2019-06-20T15:47:05.754Z,30.22
2019-06-20T15:49:16.083Z,30.24
2019-06-20T15:51:20.408Z,30.51
2019-06-20T15:53:26.950Z,30.35
2019-06-20T15:55:33.401Z,30.60
2019-06-20T15:57:40.433Z,30.97
2019-06-20T15:59:46.804Z,30.78
2019-06-20T16:01:53.218Z,30.79
2019-06-20T16:03:59.609Z,30.72
2019-06-20T16:06:06.606Z,30.56
2019-06-20T16:08:13.044Z,30.39
2019-06-20T16:10:19.736Z,30.20
2019-06-20T16:12:26.256Z,30.15
2019-06-20T16:14:33.663Z,29.97
2019-06-20T16:16:40.168Z,29.83
2019-06-20T16:18:46.651Z,29.66
2019-06-20T16:20:53.094Z,29.43
2019-06-20T16:22:59.534Z,29.28
2019-06-20T16:25:08.167Z,29.14
2019-06-20T16:27:14.667Z,28.90
2019-06-20T16:29:21.050Z,28.62
2019-06-20T16:31:27.474Z,28.29
2019-06-20T16:33:33.847Z,28.28
2019-06-20T16:35:40.296Z,28.12
2019-06-20T16:37:46.741Z,27.97
2019-06-20T16:39:53.142Z,27.88
2019-06-20T16:41:59.674Z,27.71
2019-06-20T16:44:06.587Z,27.64
2019-06-20T16:46:13.046Z,27.55
2019-06-20T16:48:19.521Z,27.51
2019-06-20T16:50:26.170Z,27.53
2019-06-20T16:52:32.593Z,27.58
2019-06-20T16:54:39.023Z,27.60
2019-06-20T16:56:45.491Z,27.59
2019-06-20T16:58:51.958Z,27.51
2019-06-20T17:00:58.483Z,27.41
2019-06-20T17:03:05.962Z,27.40
2019-06-20T17:05:12.932Z,27.35
2019-06-20T17:07:19.354Z,27.27
2019-06-20T17:09:25.785Z,27.19
2019-06-20T17:11:32.275Z,27.13
2019-06-20T17:13:38.730Z,27.14
2019-06-20T17:15:45.193Z,27.09
2019-06-20T17:17:52.079Z,27.07
2019-06-20T17:19:58.451Z,26.98
2019-06-20T17:22:05.111Z,26.89
2019-06-20T17:24:11.720Z,26.83
2019-06-20T17:26:18.205Z,26.76
2019-06-20T17:28:24.709Z,26.74
2019-06-20T17:30:31.721Z,26.73
2019-06-20T17:32:38.165Z,26.69
2019-06-20T17:34:44.726Z,26.66
2019-06-20T17:36:52.274Z,26.56
2019-06-20T17:38:58.703Z,26.49
2019-06-20T17:41:05.284Z,26.40
2019-06-20T17:43:11.727Z,26.35
2019-06-20T17:45:18.869Z,26.29
2019-06-20T17:47:25.300Z,26.24
2019-06-20T17:49:31.790Z,26.18
2019-06-20T17:51:38.408Z,26.10
2019-06-20T17:53:44.840Z,26.01
2019-06-20T17:55:51.278Z,25.91
2019-06-20T17:57:57.766Z,25.85
2019-06-20T18:00:12.491Z,25.76
2019-06-20T18:02:18.948Z,25.72
2019-06-20T18:04:26.891Z,25.65
2019-06-20T18:06:33.711Z,25.61
2019-06-20T18:08:40.164Z,25.57
2019-06-20T18:10:46.820Z,25.53
2019-06-20T18:12:53.220Z,25.45
2019-06-20T18:14:59.753Z,25.42
2019-06-20T18:17:06.352Z,25.36
2019-06-20T18:19:12.852Z,25.31
2019-06-20T18:21:19.398Z,25.28
2019-06-20T18:23:25.859Z,25.24
2019-06-20T18:25:32.377Z,25.18
2019-06-20T18:27:38.857Z,25.14
2019-06-20T18:29:46.993Z,25.12
2019-06-20T18:31:53.502Z,25.09
2019-06-20T18:33:59.992Z,25.05
2019-06-20T18:36:06.499Z,25.01
2019-06-20T18:38:13.102Z,24.98
2019-06-20T18:40:19.651Z,24.95
2019-06-20T18:42:26.056Z,24.90
2019-06-20T18:44:32.485Z,24.87
2019-06-20T18:46:38.875Z,24.85
2019-06-20T18:48:45.316Z,24.82
2019-06-20T18:50:51.665Z,24.80
2019-06-20T18:52:58.119Z,24.76
2019-06-20T18:55:07.337Z,24.71
2019-06-20T18:57:13.812Z,24.68
2019-06-20T18:59:20.376Z,24.64
2019-06-20T19:01:26.852Z,24.59
2019-06-20T19:03:33.271Z,24.55
2019-06-20T19:05:39.691Z,24.53
2019-06-20T19:07:46.069Z,24.50
2019-06-20T19:09:52.482Z,24.47
2019-06-20T19:11:58.867Z,24.44
2019-06-20T19:14:05.638Z,24.43
2019-06-20T19:16:12.037Z,24.39
2019-06-20T19:18:18.466Z,24.37
2019-06-20T19:20:25.042Z,24.35
2019-06-20T19:22:31.430Z,24.31
2019-06-20T19:24:37.800Z,24.29
2019-06-20T19:26:45.496Z,24.26
2019-06-20T19:28:52.031Z,24.24
2019-06-20T19:30:58.446Z,24.22
2019-06-20T19:33:05.027Z,24.17
2019-06-20T19:35:12.427Z,24.17
2019-06-20T19:37:18.805Z,24.17
2019-06-20T19:39:25.253Z,24.15
2019-06-20T19:41:31.756Z,24.09
2019-06-20T19:43:38.248Z,24.05
2019-06-20T19:45:45.785Z,24.03
2019-06-20T19:47:52.330Z,23.99
2019-06-20T19:49:58.967Z,23.93
2019-06-20T19:52:05.733Z,23.90
2019-06-20T19:54:12.285Z,23.86
2019-06-20T19:56:18.902Z,23.83
2019-06-20T19:58:25.554Z,23.78
2019-06-20T20:00:32.016Z,23.71
2019-06-20T20:02:38.532Z,23.66
2019-06-20T20:04:45.107Z,23.59
2019-06-20T20:06:51.751Z,23.53
2019-06-20T20:08:58.304Z,23.49
2019-06-20T20:11:04.779Z,23.45
2019-06-20T20:13:11.256Z,23.38
2019-06-20T20:15:21.742Z,23.34
2019-06-20T20:17:28.155Z,23.30
2019-06-20T20:19:34.621Z,23.23
2019-06-20T20:21:41.182Z,23.20
2019-06-20T20:23:47.571Z,23.20
2019-06-20T20:25:54.079Z,23.17
2019-06-20T20:28:00.445Z,23.17
2019-06-20T20:30:12.195Z,23.17
2019-06-20T20:32:18.783Z,23.19
2019-06-20T20:34:25.183Z,23.22
2019-06-20T20:36:31.568Z,23.23
2019-06-20T20:38:38.061Z,23.23
2019-06-20T20:40:45.113Z,23.20
2019-06-20T20:42:51.734Z,23.21
2019-06-20T20:44:58.150Z,23.21
2019-06-20T20:47:04.705Z,23.17
2019-06-20T20:49:11.148Z,23.15
2019-06-20T20:51:17.569Z,23.16
2019-06-20T20:53:23.959Z,23.15
2019-06-20T20:55:30.342Z,23.16
2019-06-20T20:57:36.883Z,23.18
2019-06-20T20:59:43.268Z,23.20
2019-06-20T21:01:50.094Z,23.17
2019-06-20T21:03:56.474Z,23.17
2019-06-20T21:06:02.955Z,23.18
2019-06-20T21:08:09.339Z,23.18
2019-06-20T21:10:16.878Z,23.17
2019-06-20T21:12:23.430Z,23.18
2019-06-20T21:14:29.830Z,23.17
2019-06-20T21:16:36.268Z,23.21
2019-06-20T21:18:42.712Z,23.23
2019-06-20T21:20:49.233Z,23.26
2019-06-20T21:22:55.658Z,23.30
2019-06-20T21:25:02.147Z,23.35
2019-06-20T21:27:08.568Z,23.40
2019-06-20T21:29:15.050Z,23.44
2019-06-20T21:31:21.428Z,23.46
2019-06-20T21:33:27.861Z,23.47
2019-06-20T21:35:34.311Z,23.46
2019-06-20T21:37:40.739Z,23.45
2019-06-20T21:39:47.129Z,23.42
2019-06-20T21:41:53.639Z,23.38
2019-06-20T21:44:00.109Z,23.35
2019-06-20T21:46:07.065Z,23.31
2019-06-20T21:48:13.893Z,23.29
2019-06-20T21:50:20.849Z,23.26
2019-06-20T21:52:27.322Z,23.14
2019-06-20T21:54:33.858Z,23.03
2019-06-20T21:56:40.288Z,22.96
2019-06-20T21:58:46.745Z,22.91
2019-06-20T22:00:58.162Z,22.87
2019-06-20T22:03:07.042Z,22.82
2019-06-20T22:05:13.878Z,22.78
2019-06-20T22:07:20.291Z,22.71
2019-06-20T22:09:26.662Z,22.66
2019-06-20T22:11:33.138Z,22.60
2019-06-20T22:13:41.272Z,22.52
2019-06-20T22:15:47.795Z,22.48
2019-06-20T22:17:54.217Z,22.38
2019-06-20T22:20:00.721Z,22.34
2019-06-20T22:22:07.479Z,22.31
2019-06-20T22:24:14.567Z,22.22
2019-06-20T22:26:22.514Z,22.19
2019-06-20T22:28:29.041Z,22.16
2019-06-20T22:30:46.290Z,22.15
2019-06-20T22:32:53.810Z,22.09
2019-06-20T22:35:01.609Z,22.04
2019-06-20T22:37:07.972Z,22.00
2019-06-20T22:39:14.382Z,21.97
2019-06-20T22:41:20.834Z,21.95
2019-06-20T22:43:27.306Z,21.91
2019-06-20T22:45:33.739Z,21.90
2019-06-20T22:47:40.313Z,21.91
2019-06-20T22:49:48.048Z,21.92
2019-06-20T22:51:55.702Z,21.91
2019-06-20T22:54:02.299Z,21.91
2019-06-20T22:56:08.852Z,21.89
2019-06-20T22:58:15.455Z,21.87
2019-06-20T23:00:22.137Z,21.84
2019-06-20T23:02:28.644Z,21.78
2019-06-20T23:04:35.013Z,21.76
2019-06-20T23:06:55.385Z,21.64
2019-06-20T23:08:50.607Z,21.59
2019-06-20T23:10:57.381Z,21.54
2019-06-20T23:13:03.812Z,21.50
2019-06-20T23:15:11.370Z,21.47
2019-06-20T23:17:17.729Z,21.46
2019-06-20T23:19:24.144Z,21.41
2019-06-20T23:21:30.660Z,21.42
2019-06-20T23:23:37.164Z,21.39
2019-06-20T23:25:45.364Z,21.34
2019-06-20T23:27:51.875Z,21.28
2019-06-20T23:29:58.402Z,21.22
2019-06-20T23:32:04.984Z,21.16
2019-06-20T23:34:11.416Z,21.11
2019-06-20T23:36:17.973Z,21.10
2019-06-20T23:38:24.411Z,21.12
2019-06-20T23:40:35.562Z,21.10
2019-06-20T23:42:42.167Z,21.08
2019-06-20T23:44:48.602Z,21.07
2019-06-20T23:46:54.963Z,21.04
2019-06-20T23:49:01.394Z,20.99
2019-06-20T23:51:07.835Z,20.96
2019-06-20T23:53:21.700Z,20.94
2019-06-20T23:55:28.071Z,20.96
2019-06-20T23:57:36.134Z,20.94
2019-06-20T23:59:42.511Z,20.93
